Time;durP1;ratioP1;P1;durP2;ratioP2;P2;SDS_P1;SDS_P2;PMS_P1;PMS_P2;Temp;Humidity;BMP_temperature;BMP_pressure;BME280_temperature;BME280_humidity;BME280_pressure;Samples;Min_cycle;Max_cycle;Signal;HPM_P1;HPM_P2
2023/10/13 00:01:59;;;;;;;50.08;29.42;;;17.10;99.90;;;;;;4998223;28;20337;-74
2023/10/13 00:04:25;;;;;;;37.40;25.50;;;17.10;99.90;;;;;;5017015;28;20496;-74
2023/10/13 00:06:52;;;;;;;39.78;26.52;;;17.10;99.90;;;;;;5000041;28;20044;-74
2023/10/13 00:09:25;;;;;;;35.47;23.90;;;17.10;99.90;;;;;;5029692;28;20033;-74
2023/10/13 00:11:56;;;;;;;35.65;24.58;;;17.10;99.90;;;;;;5010476;28;20029;-73
2023/10/13 00:14:22;;;;;;;42.03;28.60;;;17.10;99.90;;;;;;5001141;28;20033;-74
2023/10/13 00:17:02;;;;;;;35.78;25.08;;;17.10;99.90;;;;;;4999225;28;20486;-74
2023/10/13 00:19:37;;;;;;;35.25;24.50;;;17.10;99.90;;;;;;5013701;28;20041;-74
2023/10/13 00:22:09;;;;;;;37.30;24.65;;;17.10;99.90;;;;;;5015589;28;20052;-74
2023/10/13 00:24:45;;;;;;;28.58;22.60;;;17.10;99.90;;;;;;5013870;28;20508;-74
2023/10/13 00:27:41;;;;;;;40.72;27.40;;;17.20;99.90;;;;;;4997035;28;20500;-74
2023/10/13 00:32:55;;;;;;;38.55;24.63;;;17.10;99.90;;;;;;5015507;28;20029;-74
2023/10/13 00:35:36;;;;;;;34.92;24.35;;;17.20;99.90;;;;;;5014378;28;20049;-74
2023/10/13 00:38:17;;;;;;;31.98;21.95;;;17.10;99.90;;;;;;5015644;28;20100;-74
2023/10/13 00:40:51;;;;;;;48.78;28.23;;;17.10;99.90;;;;;;4999594;28;20052;-74
2023/10/13 00:46:05;;;;;;;30.80;21.23;;;17.20;99.90;;;;;;5013128;28;20033;-74
2023/10/13 00:48:33;;;;;;;25.67;18.42;;;17.10;99.90;;;;;;5013457;28;20048;-74
2023/10/13 00:51:08;;;;;;;28.08;19.02;;;17.10;99.90;;;;;;5026378;28;20066;-74
2023/10/13 00:53:44;;;;;;;29.88;19.85;;;17.10;99.90;;;;;;4997496;28;20037;-74
2023/10/13 00:56:27;;;;;;;24.42;18.52;;;17.10;99.90;;;;;;5017067;28;21417;-74
2023/10/13 00:59:02;;;;;;;30.95;20.52;;;17.10;99.90;;;;;;5008117;28;20037;-74
2023/10/13 01:01:32;;;;;;;32.50;21.10;;;17.20;99.90;;;;;;5015467;28;20030;-74
2023/10/13 01:04:05;;;;;;;29.13;19.48;;;17.10;99.90;;;;;;4996626;28;20037;-74
2023/10/13 01:06:31;;;;;;;;;;;17.10;99.90;;;;;;5014812;28;20457;-74
2023/10/13 01:09:18;;;;;;;38.13;23.33;;;17.10;99.90;;;;;;5029202;28;19913;-74
2023/10/13 01:11:51;;;;;;;30.20;20.90;;;17.10;99.90;;;;;;4997195;28;20041;-74
2023/10/13 01:14:20;;;;;;;24.98;16.85;;;17.10;99.90;;;;;;5018688;28;20033;-74
2023/10/13 01:16:52;;;;;;;24.42;16.95;;;17.10;99.90;;;;;;5000137;28;20026;-74
2023/10/13 01:19:27;;;;;;;28.35;19.15;;;17.10;99.90;;;;;;5011115;28;20492;-74
2023/10/13 01:22:04;;;;;;;24.50;17.48;;;17.10;99.90;;;;;;4994886;28;20041;-75
2023/10/13 01:24:34;;;;;;;21.17;15.82;;;17.10;99.90;;;;;;5030342;28;20040;-74
2023/10/13 01:27:17;;;;;;;21.67;15.35;;;17.10;99.90;;;;;;5017209;28;20515;-74
2023/10/13 01:29:48;;;;;;;33.15;21.38;;;17.20;99.90;;;;;;5016182;28;20025;-74
2023/10/13 01:32:22;;;;;;;24.42;19.05;;;17.20;99.90;;;;;;5018723;28;20429;-74
2023/10/13 01:34:49;;;;;;;26.83;18.98;;;17.20;99.90;;;;;;5012684;28;20408;-74
2023/10/13 01:37:16;;;;;;;25.55;19.33;;;17.10;99.90;;;;;;5016347;28;20041;-74
2023/10/13 01:39:47;;;;;;;23.00;17.20;;;17.20;99.90;;;;;;4999174;28;20396;-73
2023/10/13 01:42:19;;;;;;;30.27;21.15;;;17.20;99.90;;;;;;4999944;28;20404;-74
2023/10/13 01:44:46;;;;;;;25.15;18.00;;;17.10;99.90;;;;;;5002533;28;20021;-74
2023/10/13 01:47:12;;;;;;;28.88;20.15;;;17.20;99.90;;;;;;4997900;28;20037;-74
2023/10/13 01:49:42;;;;;;;23.75;17.15;;;17.10;99.90;;;;;;5013257;28;20040;-74
2023/10/13 01:52:11;;;;;;;21.33;16.77;;;17.20;99.90;;;;;;4983211;28;20037;-74
2023/10/13 01:54:41;;;;;;;24.55;16.85;;;17.20;99.90;;;;;;5016348;28;20028;-74
2023/10/13 01:57:08;;;;;;;24.60;19.13;;;17.20;99.90;;;;;;5020156;28;20037;-74
2023/10/13 01:59:43;;;;;;;19.23;15.88;;;17.10;99.90;;;;;;5015256;28;20034;-73
2023/10/13 02:02:14;;;;;;;29.67;19.95;;;17.20;99.90;;;;;;5015772;28;20040;-74
2023/10/13 02:04:57;;;;;;;23.30;17.75;;;17.10;99.90;;;;;;5015069;28;20033;-74
2023/10/13 02:07:29;;;;;;;19.25;13.75;;;17.10;99.90;;;;;;5020541;28;20042;-74
2023/10/13 02:09:56;;;;;;;23.83;17.02;;;17.10;99.90;;;;;;5000890;28;20045;-73
2023/10/13 02:12:28;;;;;;;23.08;17.13;;;17.10;99.90;;;;;;5020874;28;20025;-74
2023/10/13 02:14:55;;;;;;;;;;;17.10;99.90;;;;;;5002749;28;20040;-74
2023/10/13 02:17:26;;;;;;;20.92;14.68;;;17.10;99.90;;;;;;4999262;28;19939;-74
2023/10/13 02:19:54;;;;;;;18.95;15.23;;;17.10;99.90;;;;;;5016311;28;20052;-74
2023/10/13 02:22:29;;;;;;;21.90;17.10;;;17.10;99.90;;;;;;5003769;28;20037;-73
2023/10/13 02:25:01;;;;;;;18.77;14.13;;;17.10;99.90;;;;;;5036444;28;20658;-74
2023/10/13 02:27:28;;;;;;;17.52;14.48;;;17.10;99.90;;;;;;5021672;28;20041;-73
2023/10/13 02:30:00;;;;;;;17.98;14.73;;;17.10;99.90;;;;;;5002604;28;20034;-73
2023/10/13 02:32:30;;;;;;;16.92;13.98;;;17.10;99.90;;;;;;5016868;28;20056;-74
2023/10/13 02:35:05;;;;;;;19.00;14.38;;;17.10;99.90;;;;;;5020474;28;20040;-74
2023/10/13 02:37:32;;;;;;;25.52;15.48;;;17.10;99.90;;;;;;5020400;28;20048;-74
2023/10/13 02:40:00;;;;;;;21.23;14.45;;;17.10;99.90;;;;;;5003700;28;20056;-73
2023/10/13 02:42:26;;;;;;;18.00;13.95;;;17.00;99.90;;;;;;5022400;28;20049;-74
2023/10/13 02:44:55;;;;;;;14.18;11.52;;;17.10;99.90;;;;;;5018398;28;20087;-74
2023/10/13 02:47:24;;;;;;;13.15;11.25;;;17.10;99.90;;;;;;5019450;28;20037;-73
2023/10/13 02:49:50;;;;;;;14.30;11.15;;;17.10;99.90;;;;;;5034135;28;20029;-74
2023/10/13 02:52:16;;;;;;;14.15;11.50;;;17.10;99.90;;;;;;5020095;28;20036;-74
2023/10/13 02:54:47;;;;;;;17.88;12.38;;;17.00;99.90;;;;;;5002331;28;20037;-74
2023/10/13 02:57:17;;;;;;;15.38;12.02;;;17.10;99.90;;;;;;5019601;28;20104;-74
2023/10/13 02:59:47;;;;;;;13.77;10.75;;;17.00;99.90;;;;;;4998934;28;20037;-73
2023/10/13 03:02:17;;;;;;;15.57;11.43;;;17.00;99.90;;;;;;5030377;28;20444;-74
2023/10/13 03:04:48;;;;;;;9.15;8.20;;;17.00;99.90;;;;;;5000435;28;20038;-74
2023/10/13 03:07:22;;;;;;;10.50;9.32;;;17.00;99.90;;;;;;5020095;28;20045;-74
2023/10/13 03:09:52;;;;;;;11.52;8.63;;;17.00;99.90;;;;;;5017109;28;20400;-74
2023/10/13 03:12:19;;;;;;;14.57;9.68;;;17.00;99.90;;;;;;5017450;28;20394;-74
2023/10/13 03:14:49;;;;;;;8.73;7.47;;;17.00;99.90;;;;;;5003036;28;20037;-73
2023/10/13 03:17:18;;;;;;;11.48;9.15;;;17.00;99.90;;;;;;5019383;28;20040;-74
2023/10/13 03:19:49;;;;;;;10.80;8.13;;;17.00;99.90;;;;;;5018346;28;20045;-74
2023/10/13 03:22:16;;;;;;;11.13;7.80;;;17.00;99.90;;;;;;5020246;28;20033;-73
2023/10/13 03:24:46;;;;;;;9.90;7.70;;;17.00;99.90;;;;;;5017825;28;20029;-73
2023/10/13 03:27:17;;;;;;;13.63;8.23;;;17.00;99.90;;;;;;5014686;28;20405;-74
2023/10/13 03:29:54;;;;;;;9.05;7.25;;;17.00;99.90;;;;;;5014755;28;20041;-74
2023/10/13 03:32:20;;;;;;;7.95;6.72;;;17.00;99.90;;;;;;4984323;28;20041;-74
2023/10/13 03:35:24;;;;;;;8.63;6.63;;;17.00;99.90;;;;;;5020131;28;20041;-74
2023/10/13 03:37:40;;;;;;;7.80;5.90;;;17.00;99.90;;;;;;5016685;28;20048;-73
2023/10/13 03:43:10;;;;;;;10.05;7.22;;;17.00;99.90;;;;;;5017555;28;20029;-74
2023/10/13 03:45:42;;;;;;;8.00;6.18;;;17.00;99.90;;;;;;5005234;28;20055;-74
2023/10/13 03:51:07;;;;;;;10.00;7.32;;;17.00;99.90;;;;;;5023954;28;20045;-74
2023/10/13 03:53:34;;;;;;;12.73;7.78;;;17.00;99.90;;;;;;5016115;28;20370;-73
2023/10/13 03:56:08;;;;;;;19.83;11.98;;;17.00;99.90;;;;;;5000974;28;20037;-74
2023/10/13 03:58:45;;;;;;;16.73;11.13;;;17.00;99.90;;;;;;5018003;28;20033;-73
2023/10/13 04:01:15;;;;;;;19.65;11.68;;;17.00;99.90;;;;;;5001523;28;20036;-73
2023/10/13 04:04:03;;;;;;;14.10;9.85;;;17.00;99.90;;;;;;5034041;28;20863;-73
2023/10/13 04:17:22;;;;;;;18.08;12.45;;;17.00;99.90;;;;;;5033603;28;20377;-73
2023/10/13 04:20:32;;;;;;;16.55;10.88;;;17.00;99.90;;;;;;5020711;28;20045;-73
2023/10/13 04:49:35;;;;;;;16.05;11.27;;;16.90;99.90;;;;;;5017754;28;20554;-73
2023/10/13 05:05:44;;;;;;;33.45;18.27;;;17.00;99.90;;;;;;5018465;28;20924;-74
2023/10/13 05:51:33;;;;;;;25.90;17.35;;;17.60;99.90;;;;;;5031925;28;20044;-75
2023/10/13 06:30:06;;;;;;;20.00;12.50;;;17.70;99.90;;;;;;4997268;28;20045;-75
2023/10/13 06:32:33;;;;;;;14.05;10.48;;;17.80;99.90;;;;;;4998251;28;20041;-75
2023/10/13 06:35:08;;;;;;;19.25;13.10;;;17.70;99.90;;;;;;5015853;28;20129;-75
2023/10/13 06:37:41;;;;;;;14.80;11.60;;;17.80;99.90;;;;;;5016219;28;20029;-75
2023/10/13 06:40:25;;;;;;;16.60;11.65;;;17.80;99.90;;;;;;4997491;28;20401;-75
2023/10/13 06:42:55;;;;;;;13.60;10.25;;;17.80;99.90;;;;;;5017055;28;20393;-75
2023/10/13 06:45:21;;;;;;;15.30;11.27;;;17.80;99.90;;;;;;4999626;28;20440;-75
2023/10/13 06:47:53;;;;;;;14.07;9.93;;;17.80;99.90;;;;;;5016722;28;20037;-75
2023/10/13 06:50:19;;;;;;;11.43;8.40;;;17.90;99.90;;;;;;5014309;28;20041;-75
2023/10/13 06:52:50;;;;;;;18.45;12.13;;;17.90;99.90;;;;;;5029543;28;20037;-75
2023/10/13 06:55:24;;;;;;;15.40;10.45;;;17.90;99.90;;;;;;4996795;28;20032;-75
2023/10/13 06:57:51;;;;;;;15.23;12.10;;;17.90;99.90;;;;;;4995416;28;20040;-76
2023/10/13 07:00:28;;;;;;;15.30;10.98;;;18.00;99.90;;;;;;5003943;28;20044;-75
2023/10/13 07:03:05;;;;;;;16.02;12.20;;;17.90;99.90;;;;;;4995830;28;20052;-75
2023/10/13 07:05:39;;;;;;;14.60;10.05;;;18.00;99.90;;;;;;4994987;28;20196;-75
2023/10/13 07:08:09;;;;;;;11.32;9.45;;;17.90;99.90;;;;;;5015462;28;20045;-75
2023/10/13 07:10:48;;;;;;;17.85;11.32;;;18.00;99.90;;;;;;5018559;28;20404;-75
2023/10/13 07:13:16;;;;;;;16.95;10.30;;;18.00;99.90;;;;;;5018329;28;20033;-75
2023/10/13 07:15:46;;;;;;;10.45;8.38;;;18.00;99.90;;;;;;5017746;28;20484;-75
2023/10/13 07:18:13;;;;;;;11.48;8.15;;;18.00;99.90;;;;;;5015050;28;20036;-75
2023/10/13 07:20:46;;;;;;;11.88;9.10;;;18.00;99.90;;;;;;4985241;28;20045;-75
2023/10/13 07:23:24;;;;;;;13.65;8.98;;;18.00;99.90;;;;;;5032295;28;20034;-75
2023/10/13 07:26:03;;;;;;;13.18;8.55;;;18.00;99.90;;;;;;5014140;28;20389;-75
2023/10/13 07:28:36;;;;;;;12.80;9.75;;;18.00;99.90;;;;;;5017185;28;20044;-75
2023/10/13 07:33:31;;;;;;;11.73;9.57;;;18.00;99.90;;;;;;5033839;28;20029;-75
2023/10/13 07:36:27;;;;;;;14.40;9.80;;;18.10;99.90;;;;;;4998335;28;20036;-75
2023/10/13 07:39:20;;;;;;;14.88;10.27;;;18.00;99.90;;;;;;5015577;28;20045;-75
2023/10/13 07:41:51;;;;;;;20.95;11.88;;;18.00;99.90;;;;;;4999797;28;20052;-75
2023/10/13 07:44:20;;;;;;;14.95;10.35;;;18.10;99.90;;;;;;5016573;28;20373;-75
2023/10/13 07:46:57;;;;;;;13.52;8.48;;;18.00;99.90;;;;;;4998403;28;20044;-75
2023/10/13 07:49:25;;;;;;;13.10;8.75;;;18.00;99.90;;;;;;5008830;28;20524;-75
2023/10/13 07:51:57;;;;;;;13.45;8.45;;;18.00;99.90;;;;;;4997939;28;20038;-75
2023/10/13 07:54:23;;;;;;;12.82;8.85;;;18.10;99.90;;;;;;5015006;28;20029;-75
2023/10/13 07:56:50;;;;;;;13.38;9.05;;;18.00;99.90;;;;;;5016238;28;20056;-74
2023/10/13 07:59:21;;;;;;;13.82;9.32;;;18.10;99.90;;;;;;5001019;28;20064;-75
2023/10/13 08:02:11;;;;;;;17.52;10.95;;;18.10;99.90;;;;;;4985768;28;20400;-75
2023/10/13 08:04:36;;;;;;;15.40;10.93;;;18.10;99.90;;;;;;5019252;28;20496;-75
2023/10/13 08:07:13;;;;;;;17.73;11.30;;;18.10;99.90;;;;;;4998204;28;20034;-75
2023/10/13 08:09:40;;;;;;;19.63;11.45;;;18.10;99.90;;;;;;5018480;28;20040;-75
2023/10/13 08:12:11;;;;;;;13.75;9.43;;;18.10;99.90;;;;;;5001094;28;20037;-75
2023/10/13 08:14:40;;;;;;;17.88;10.30;;;18.10;99.90;;;;;;5017894;28;20052;-75
2023/10/13 08:17:10;;;;;;;17.05;10.25;;;18.10;99.90;;;;;;4982344;28;20051;-76
2023/10/13 08:19:39;;;;;;;17.13;9.13;;;18.20;99.90;;;;;;4999770;28;20400;-75
2023/10/13 08:40:20;;;;;;;16.25;11.13;;;18.60;99.90;;;;;;5016329;28;20328;-76
2023/10/13 08:47:53;;;;;;;16.92;10.70;;;18.80;99.90;;;;;;5032530;28;20444;-75
2023/10/13 08:50:47;;;;;;;16.55;9.63;;;18.80;99.90;;;;;;5015819;28;20511;-75
2023/10/13 08:53:31;;;;;;;17.58;9.85;;;18.90;99.90;;;;;;5030572;28;20121;-75
2023/10/13 09:02:21;;;;;;;21.75;13.10;;;19.10;99.90;;;;;;5016163;28;20034;-75
2023/10/13 09:04:22;;;;;;;19.75;11.90;;;19.10;99.90;;;;;;5008006;28;20033;-76
2023/10/13 09:17:47;;;;;;;12.80;8.50;;;19.30;99.90;;;;;;5010366;28;20038;-75
2023/10/13 09:20:32;;;;;;;14.07;8.63;;;19.30;99.90;;;;;;4986115;28;20053;-75
2023/10/13 09:25:38;;;;;;;15.43;9.52;;;19.50;99.90;;;;;;5027155;28;20032;-75
2023/10/13 09:28:15;;;;;;;14.77;8.50;;;19.50;99.90;;;;;;5015754;28;20025;-75
2023/10/13 09:30:52;;;;;;;15.85;8.00;;;19.50;99.90;;;;;;5013901;28;20042;-75
2023/10/13 09:33:39;;;;;;;16.85;8.70;;;19.40;99.90;;;;;;5015297;28;20048;-74
2023/10/13 09:36:07;;;;;;;14.85;9.10;;;19.40;99.90;;;;;;4995626;28;20381;-74
2023/10/13 09:38:36;;;;;;;14.80;7.93;;;19.30;99.90;;;;;;5016854;28;20025;-75
2023/10/13 09:41:53;;;;;;;13.27;8.80;;;19.30;99.90;;;;;;4994064;28;20064;-75
2023/10/13 09:43:52;;;;;;;15.15;8.85;;;19.30;99.90;;;;;;5007810;28;20056;-75
2023/10/13 09:46:23;;;;;;;14.60;8.52;;;19.30;99.90;;;;;;4996892;28;20041;-75
2023/10/13 09:49:14;;;;;;;12.32;7.90;;;19.30;99.90;;;;;;4989558;28;20052;-74
2023/10/13 09:51:45;;;;;;;15.05;8.68;;;19.20;99.90;;;;;;5015348;28;20044;-75
2023/10/13 09:54:29;;;;;;;18.98;9.40;;;19.20;99.90;;;;;;5013651;28;20519;-75
2023/10/13 09:57:09;;;;;;;14.50;9.95;;;19.20;99.90;;;;;;5015300;28;20029;-74
2023/10/13 09:59:52;;;;;;;15.85;9.15;;;19.30;99.90;;;;;;5011878;28;20472;-76
2023/10/13 10:02:25;;;;;;;14.82;10.35;;;19.30;99.90;;;;;;5014369;28;20045;-76
2023/10/13 10:04:52;;;;;;;12.95;9.52;;;19.40;99.90;;;;;;5015072;28;20040;-75
2023/10/13 10:07:29;;;;;;;14.57;8.70;;;19.40;99.90;;;;;;4995279;28;20025;-75
2023/10/13 10:10:01;;;;;;;11.80;8.10;;;19.40;99.90;;;;;;5031034;28;20033;-75
2023/10/13 10:12:47;;;;;;;18.38;9.05;;;19.40;99.90;;;;;;5014021;28;20381;-75
2023/10/13 10:15:30;;;;;;;18.33;8.70;;;19.40;99.90;;;;;;5028878;28;20532;-76
2023/10/13 10:17:57;;;;;;;15.63;8.13;;;19.40;99.90;;;;;;5011417;28;20057;-75
2023/10/13 10:20:44;;;;;;;12.43;7.65;;;19.50;99.90;;;;;;5011463;28;20052;-76
2023/10/13 10:23:21;;;;;;;10.68;7.05;;;19.60;99.90;;;;;;4997124;28;20388;-74
2023/10/13 10:25:51;;;;;;;14.98;8.07;;;19.50;99.90;;;;;;5012239;28;20045;-75
2023/10/13 10:28:19;;;;;;;13.45;7.20;;;19.50;99.90;;;;;;5013808;28;20029;-75
2023/10/13 10:30:46;;;;;;;13.98;7.80;;;19.60;99.90;;;;;;5008724;28;20049;-75
2023/10/13 10:33:13;;;;;;;12.00;7.38;;;19.60;99.90;;;;;;4996272;28;20416;-75
2023/10/13 10:35:47;;;;;;;12.30;6.78;;;19.60;99.90;;;;;;5013881;28;20040;-75
2023/10/13 10:38:24;;;;;;;15.25;8.20;;;19.60;99.90;;;;;;5012445;28;20029;-75
2023/10/13 10:41:13;;;;;;;10.38;7.18;;;19.60;99.90;;;;;;5025854;28;20034;-75
2023/10/13 10:43:42;;;;;;;10.85;6.70;;;19.60;99.90;;;;;;5002273;28;20038;-75
2023/10/13 10:46:16;;;;;;;14.20;8.50;;;19.50;99.90;;;;;;4998654;28;20060;-75
2023/10/13 10:48:43;;;;;;;17.98;7.28;;;19.50;99.90;;;;;;4990148;28;20867;-75
2023/10/13 10:51:22;;;;;;;14.65;7.85;;;19.60;99.90;;;;;;5036556;28;20636;-75
2023/10/13 10:53:51;;;;;;;11.75;7.43;;;19.70;99.90;;;;;;5017964;28;20025;-75
2023/10/13 10:56:24;;;;;;;15.40;7.10;;;19.80;99.90;;;;;;4986648;28;20044;-75
2023/10/13 10:58:57;;;;;;;12.88;7.30;;;19.80;99.90;;;;;;5019673;28;20034;-75
2023/10/13 11:01:38;;;;;;;14.30;7.78;;;19.80;99.90;;;;;;4996450;28;20045;-75
2023/10/13 11:04:08;;;;;;;9.23;6.85;;;19.90;99.90;;;;;;5015290;28;20025;-74
2023/10/13 11:06:41;;;;;;;14.45;8.45;;;19.90;99.90;;;;;;5018499;28;20041;-75
2023/10/13 11:09:27;;;;;;;15.20;11.63;;;20.00;99.90;;;;;;5003414;28;20400;-74
2023/10/13 11:11:56;;;;;;;17.83;11.00;;;20.10;99.90;;;;;;5033464;28;20033;-75
2023/10/13 11:14:25;;;;;;;14.63;10.20;;;20.20;99.90;;;;;;5033450;28;20036;-75
2023/10/13 11:16:53;;;;;;;15.90;12.85;;;20.30;99.90;;;;;;5017831;28;20040;-74
2023/10/13 11:19:30;;;;;;;16.35;11.23;;;20.40;99.90;;;;;;5017614;28;20041;-76
2023/10/13 11:21:57;;;;;;;14.80;9.00;;;20.40;99.90;;;;;;5033861;28;20049;-75
2023/10/13 11:24:23;;;;;;;13.98;7.13;;;20.40;99.90;;;;;;5001068;28;20029;-74
2023/10/13 11:26:50;;;;;;;15.15;8.73;;;20.40;99.90;;;;;;5000113;28;20029;-80
2023/10/13 11:29:30;;;;;;;11.43;8.32;;;20.40;99.90;;;;;;5015949;28;20037;-74
2023/10/13 11:32:00;;;;;;;16.23;8.13;;;20.30;99.90;;;;;;4999240;28;20400;-77
2023/10/13 11:34:39;;;;;;;11.63;7.00;;;20.20;99.90;;;;;;5017530;28;20041;-77
2023/10/13 11:39:51;;;;;;;12.63;6.47;;;20.10;99.90;;;;;;5000896;28;20515;-75
2023/10/13 11:42:18;;;;;;;15.25;6.95;;;20.10;99.90;;;;;;5000351;28;20045;-75
2023/10/13 11:44:44;;;;;;;20.23;10.32;;;20.10;99.90;;;;;;5017308;28;20034;-78
2023/10/13 11:47:47;;;;;;;19.92;9.63;;;20.20;99.90;;;;;;5016531;28;20036;-75
2023/10/13 11:50:05;;;;;;;17.45;9.20;;;20.20;99.90;;;;;;4999389;28;20060;-78
2023/10/13 11:52:31;;;;;;;21.55;10.48;;;20.20;99.90;;;;;;4999997;28;20048;-77
2023/10/13 11:54:58;;;;;;;16.05;8.35;;;20.20;99.90;;;;;;5016874;28;20396;-77
2023/10/13 11:57:24;;;;;;;17.50;8.10;;;20.30;99.90;;;;;;5018378;28;20404;-77
2023/10/13 11:59:54;;;;;;;23.45;7.47;;;20.40;99.90;;;;;;5017139;28;20042;-77
2023/10/13 12:04:57;;;;;;;13.88;8.15;;;20.50;99.90;;;;;;5016857;28;20029;-77
2023/10/13 12:12:30;;;;;;;22.88;7.78;;;20.50;99.90;;;;;;5021290;28;20524;-78
2023/10/13 12:14:56;;;;;;;14.75;7.55;;;20.70;99.90;;;;;;5008547;28;20037;-77
2023/10/13 12:17:31;;;;;;;14.52;7.47;;;20.80;99.90;;;;;;5001859;28;20029;-76
2023/10/13 12:19:58;;;;;;;16.65;8.48;;;21.00;99.90;;;;;;5017664;28;20505;-76
2023/10/13 12:22:28;;;;;;;18.85;9.63;;;21.10;99.90;;;;;;4985063;28;20037;-79
2023/10/13 12:24:56;;;;;;;20.20;10.77;;;21.20;99.90;;;;;;4999822;28;20026;-77
2023/10/13 12:27:34;;;;;;;22.52;10.70;;;21.20;99.90;;;;;;5000222;28;20477;-80
2023/10/13 12:30:07;;;;;;;22.90;12.77;;;21.20;99.90;;;;;;5018033;28;20033;-79
2023/10/13 12:32:34;;;;;;;22.30;12.43;;;21.10;99.90;;;;;;5017855;28;20048;-77
2023/10/13 12:54:04;;;;;;;14.88;7.40;;;21.30;99.90;;;;;;5014282;28;20045;-78
2023/10/13 12:56:30;;;;;;;19.42;7.80;;;21.20;99.90;;;;;;5017936;28;20036;-78
2023/10/13 12:58:57;;;;;;;11.65;7.80;;;21.20;99.90;;;;;;4997923;28;20511;-77
2023/10/13 13:01:32;;;;;;;15.50;7.10;;;21.10;99.90;;;;;;5012522;28;20477;-78
2023/10/13 13:03:59;;;;;;;15.48;7.30;;;21.10;99.90;;;;;;5015982;28;20036;-78
2023/10/13 13:06:26;;;;;;;19.38;7.53;;;21.10;99.90;;;;;;5015472;28;20037;-78
2023/10/13 13:08:53;;;;;;;15.18;6.78;;;21.10;99.90;;;;;;5029170;28;20037;-78
2023/10/13 13:11:20;;;;;;;15.50;7.00;;;21.20;99.90;;;;;;4996936;28;20037;-78
2023/10/13 13:13:47;;;;;;;18.60;6.93;;;21.20;99.90;;;;;;4997273;28;20424;-78
2023/10/13 13:16:18;;;;;;;15.95;7.55;;;21.20;99.90;;;;;;4998574;28;20041;-78
2023/10/13 13:18:45;;;;;;;13.80;7.05;;;21.20;99.90;;;;;;5016581;28;20032;-79
2023/10/13 13:21:19;;;;;;;14.48;6.55;;;21.20;99.90;;;;;;5016856;28;20056;-78
2023/10/13 13:23:46;;;;;;;14.73;6.75;;;21.20;99.90;;;;;;5013949;28;20409;-79
2023/10/13 13:26:15;;;;;;;12.95;6.72;;;21.10;99.90;;;;;;5018426;28;20531;-79
2023/10/13 13:28:42;;;;;;;14.90;7.18;;;21.10;99.90;;;;;;5016882;28;20029;-78
2023/10/13 13:31:12;;;;;;;13.82;6.25;;;21.10;99.90;;;;;;5016849;28;20049;-78
2023/10/13 13:33:42;;;;;;;13.65;6.60;;;21.10;99.90;;;;;;5015939;28;20041;-78
2023/10/13 13:36:13;;;;;;;16.58;7.75;;;21.10;99.90;;;;;;5016705;28;20048;-79
2023/10/13 13:38:40;;;;;;;16.90;6.53;;;21.00;99.90;;;;;;4999531;28;20041;-78
2023/10/13 13:41:16;;;;;;;15.98;7.25;;;21.00;99.90;;;;;;4997608;28;20053;-78
2023/10/13 13:43:50;;;;;;;10.40;6.68;;;21.00;99.90;;;;;;4998710;28;20041;-77
2023/10/13 13:46:33;;;;;;;11.85;6.75;;;20.90;99.90;;;;;;4998316;28;20040;-78
2023/10/13 13:49:00;;;;;;;16.13;6.95;;;20.80;99.90;;;;;;5014680;28;20029;-78
2023/10/13 13:51:28;;;;;;;13.93;6.88;;;20.80;99.90;;;;;;5017263;28;20037;-78
2023/10/13 13:53:56;;;;;;;18.55;7.88;;;20.70;99.90;;;;;;4999218;28;20044;-77
2023/10/13 13:56:25;;;;;;;11.60;6.35;;;20.60;99.90;;;;;;4997774;28;20033;-78
2023/10/13 13:58:53;;;;;;;20.77;6.63;;;20.60;99.90;;;;;;5015390;28;20037;-78
2023/10/13 14:01:28;;;;;;;13.90;6.25;;;20.50;99.90;;;;;;4982680;28;20037;-76
2023/10/13 14:04:02;;;;;;;14.95;6.35;;;20.50;99.90;;;;;;5012922;28;20072;-78
2023/10/13 14:06:29;;;;;;;11.85;6.05;;;20.50;99.90;;;;;;5013434;28;20028;-76
2023/10/13 14:08:59;;;;;;;16.25;7.15;;;20.40;99.90;;;;;;5015129;28;20037;-77
2023/10/13 14:14:28;;;;;;;12.15;6.93;;;20.40;99.90;;;;;;5017455;28;20057;-78
2023/10/13 14:17:07;;;;;;;16.90;6.13;;;20.40;99.90;;;;;;5011678;28;20036;-76
2023/10/13 14:19:40;;;;;;;13.98;5.90;;;20.40;99.90;;;;;;5020066;28;20038;-78
2023/10/13 14:22:06;;;;;;;14.48;5.93;;;20.30;99.90;;;;;;5020641;28;20387;-77
2023/10/13 14:24:35;;;;;;;12.02;5.85;;;20.30;99.90;;;;;;4986120;28;20525;-77
2023/10/13 14:27:11;;;;;;;11.48;5.90;;;20.20;99.90;;;;;;5036582;28;20040;-77
2023/10/13 14:29:42;;;;;;;9.65;4.97;;;20.10;99.90;;;;;;5019946;28;20029;-77
2023/10/13 14:32:12;;;;;;;14.93;5.35;;;20.10;99.90;;;;;;4996797;28;20041;-77
2023/10/13 14:34:42;;;;;;;11.77;5.43;;;20.00;99.90;;;;;;4999004;28;20052;-77
2023/10/13 14:37:12;;;;;;;10.73;6.10;;;20.00;99.90;;;;;;5020201;28;20599;-77
2023/10/13 14:39:40;;;;;;;12.07;5.53;;;19.90;99.90;;;;;;5009980;28;20030;-76
2023/10/13 14:42:06;;;;;;;10.52;5.28;;;19.90;99.90;;;;;;4986654;28;20044;-80
2023/10/13 14:44:36;;;;;;;11.90;5.53;;;19.90;99.90;;;;;;5020857;28;20029;-76
2023/10/13 14:47:08;;;;;;;12.65;5.80;;;19.80;99.90;;;;;;5004455;28;20040;-76
2023/10/13 14:49:35;;;;;;;13.23;6.50;;;19.80;99.90;;;;;;5003627;28;20052;-75
2023/10/13 14:52:02;;;;;;;14.85;5.80;;;19.80;99.90;;;;;;5004499;28;20393;-75
2023/10/13 14:54:34;;;;;;;9.85;5.47;;;19.70;99.90;;;;;;5002711;28;20029;-74
2023/10/13 14:57:01;;;;;;;10.57;6.07;;;19.60;99.90;;;;;;5015787;28;20519;-76
2023/10/13 14:59:33;;;;;;;13.77;5.60;;;19.60;99.90;;;;;;5003206;28;20037;-76
2023/10/13 15:02:01;;;;;;;10.32;5.18;;;19.50;99.90;;;;;;5021125;28;20033;-76
2023/10/13 15:04:28;;;;;;;10.98;5.60;;;19.50;99.90;;;;;;5020707;28;20045;-77
2023/10/13 15:06:55;;;;;;;16.67;8.23;;;19.50;99.90;;;;;;5017910;28;20029;-80
2023/10/13 15:09:23;;;;;;;14.55;9.00;;;19.50;99.90;;;;;;5003043;28;20954;-75
2023/10/13 15:11:53;;;;;;;12.98;7.07;;;19.50;99.90;;;;;;5030664;28;20480;-75
2023/10/13 15:14:20;;;;;;;11.98;5.82;;;19.50;99.90;;;;;;5001941;28;20053;-75
2023/10/13 15:16:46;;;;;;;9.93;5.80;;;19.50;99.90;;;;;;4999779;28;20052;-75
2023/10/13 15:19:12;;;;;;;11.73;6.00;;;19.50;99.90;;;;;;5019569;28;20029;-76
2023/10/13 15:21:40;;;;;;;9.02;5.22;;;19.40;99.90;;;;;;5002811;28;20037;-74
2023/10/13 15:24:13;;;;;;;10.27;6.10;;;19.40;99.90;;;;;;5000287;28;20369;-76
2023/10/13 15:26:44;;;;;;;11.90;5.75;;;19.30;99.90;;;;;;5033176;28;20371;-74
2023/10/13 15:29:16;;;;;;;14.35;6.85;;;19.30;99.90;;;;;;5016987;28;20033;-76
2023/10/13 15:34:28;;;;;;;17.92;7.10;;;19.20;99.90;;;;;;5020025;28;20033;-75
2023/10/13 15:36:55;;;;;;;12.45;6.63;;;19.10;99.90;;;;;;4983714;28;20029;-76
2023/10/13 15:39:31;;;;;;;12.88;6.20;;;19.00;99.90;;;;;;4997967;28;20032;-74
2023/10/13 15:41:58;;;;;;;10.60;5.32;;;19.00;99.90;;;;;;5018244;28;20518;-76
2023/10/13 15:44:29;;;;;;;10.82;6.93;;;18.90;99.90;;;;;;5018072;28;20021;-76
2023/10/13 15:46:57;;;;;;;12.30;6.00;;;18.80;99.90;;;;;;5002054;28;20361;-76
2023/10/13 15:49:24;;;;;;;15.43;6.20;;;18.80;99.90;;;;;;5015596;28;20040;-76
2023/10/13 15:51:50;;;;;;;10.27;6.90;;;18.70;99.90;;;;;;5018593;28;20042;-75
2023/10/13 15:54:17;;;;;;;13.38;6.53;;;18.70;99.90;;;;;;5017727;28;20036;-75
2023/10/13 15:56:48;;;;;;;14.55;6.82;;;18.60;99.90;;;;;;5018225;28;20060;-76
2023/10/13 15:59:15;;;;;;;13.30;6.93;;;18.60;99.90;;;;;;5001856;28;20032;-76
2023/10/13 16:01:42;;;;;;;8.63;5.10;;;18.60;99.90;;;;;;5002220;28;20048;-76
2023/10/13 16:04:11;;;;;;;13.55;6.50;;;18.60;99.90;;;;;;5035082;28;20033;-76
2023/10/13 16:06:46;;;;;;;9.23;5.40;;;18.60;99.90;;;;;;5010122;28;20022;-75
2023/10/13 16:09:22;;;;;;;15.35;6.25;;;18.60;99.90;;;;;;5035368;28;20048;-76
2023/10/13 16:11:50;;;;;;;7.82;5.18;;;18.60;99.90;;;;;;4995535;28;20037;-76
2023/10/13 16:14:20;;;;;;;11.63;6.35;;;18.50;99.90;;;;;;5020497;28;20025;-76
2023/10/13 16:16:49;;;;;;;12.48;6.70;;;18.50;99.90;;;;;;5020718;28;20037;-76
2023/10/13 16:19:23;;;;;;;12.73;6.07;;;18.50;99.90;;;;;;5000538;28;20045;-75
2023/10/13 16:21:51;;;;;;;12.07;6.18;;;18.50;99.90;;;;;;5017918;28;20472;-75
2023/10/13 16:24:18;;;;;;;12.48;7.15;;;18.50;99.90;;;;;;5019189;28;20368;-76
2023/10/13 16:26:49;;;;;;;11.60;6.90;;;18.50;99.90;;;;;;5033965;28;20452;-76
2023/10/13 16:29:17;;;;;;;13.70;7.60;;;18.50;99.90;;;;;;5018305;28;20017;-76
2023/10/13 16:31:46;;;;;;;12.80;6.28;;;18.50;99.90;;;;;;4994810;28;20037;-75
2023/10/13 16:34:17;;;;;;;14.30;7.18;;;18.50;99.90;;;;;;4998485;28;20492;-76
2023/10/13 16:36:45;;;;;;;14.73;7.45;;;18.60;99.90;;;;;;5019560;28;20465;-76
2023/10/13 16:39:15;;;;;;;10.80;6.38;;;18.50;99.90;;;;;;4999262;28;20033;-76